Time,TemperatureF,DewpointF,PressureIn,WindDirection,WindDirectionDegrees,WindSpeedMPH,WindSpeedGustMPH,Humidity,HourlyPrecipIn,Conditions,Clouds,dailyrainin,SoftwareType,DateUTC
2013-04-06 00:04:00,37.7,24.0,30.10,East,98,10.0,13.0,58,0.00,,,0.00,weatherlink.com 1.10,2013-04-06 05:04:00,
2013-04-06 00:19:00,37.5,24.0,30.11,East,89,8.0,9.0,59,0.00,,,0.00,weatherlink.com 1.10,2013-04-06 05:19:00,
2013-04-06 00:34:00,37.1,25.0,30.12,East,97,5.0,10.0,61,0.00,,,0.00,weatherlink.com 1.10,2013-04-06 05:34:00,
2013-04-06 00:50:00,36.8,25.0,30.11,ENE,71,7.0,10.0,62,0.00,,,0.00,weatherlink.com 1.10,2013-04-06 05:50:00,
2013-04-06 01:20:00,36.2,25.0,30.10,ESE,105,3.0,13.0,64,0.00,,,0.00,weatherlink.com 1.10,2013-04-06 06:20:00,
2013-04-06 01:35:00,35.8,25.0,30.09,ESE,102,5.0,9.0,65,0.00,,,0.00,weatherlink.com 1.10,2013-04-06 06:35:00,
2013-04-06 01:50:00,35.5,25.0,30.10,East,92,6.0,8.0,66,0.00,,,0.00,weatherlink.com 1.10,2013-04-06 06:50:00,
2013-04-06 02:05:00,35.2,25.0,30.09,East,91,6.0,9.0,67,0.00,,,0.00,weatherlink.com 1.10,2013-04-06 07:05:00,
2013-04-06 02:20:00,35.2,26.0,30.08,East,85,11.0,13.0,68,0.00,,,0.00,weatherlink.com 1.10,2013-04-06 07:20:00,
2013-04-06 02:35:00,35.4,25.0,30.07,ESE,109,8.0,14.0,67,0.00,,,0.00,weatherlink.com 1.10,2013-04-06 07:35:00,
2013-04-06 02:50:00,35.7,26.0,30.07,ENE,78,9.0,13.0,67,0.00,,,0.00,weatherlink.com 1.10,2013-04-06 07:50:00,
2013-04-06 03:05:00,35.8,26.0,30.08,East,98,5.0,11.0,68,0.00,,,0.00,weatherlink.com 1.10,2013-04-06 08:05:00,
2013-04-06 03:20:00,35.9,26.0,30.08,ESE,103,5.0,12.0,68,0.00,,,0.00,weatherlink.com 1.10,2013-04-06 08:20:00,
2013-04-06 03:35:00,36.0,27.0,30.07,ESE,115,5.0,13.0,69,0.00,,,0.00,weatherlink.com 1.10,2013-04-06 08:35:00,
2013-04-06 03:50:00,36.2,27.0,30.06,SE,142,6.0,12.0,69,0.00,,,0.00,weatherlink.com 1.10,2013-04-06 08:50:00,
2013-04-06 04:05:00,36.5,27.0,30.06,ESE,114,7.0,12.0,69,0.00,,,0.00,weatherlink.com 1.10,2013-04-06 09:05:00,
2013-04-06 04:20:00,37.0,27.0,30.05,SE,137,10.0,17.0,68,0.00,,,0.00,weatherlink.com 1.10,2013-04-06 09:20:00,
2013-04-06 04:35:00,37.0,28.0,30.05,SE,130,6.0,14.0,69,0.00,,,0.00,weatherlink.com 1.10,2013-04-06 09:35:00,
2013-04-06 04:50:00,37.0,28.0,30.04,SE,124,8.0,12.0,70,0.00,,,0.00,weatherlink.com 1.10,2013-04-06 09:50:00,
2013-04-06 05:05:00,37.1,28.0,30.03,SE,136,10.0,14.0,70,0.00,,,0.00,weatherlink.com 1.10,2013-04-06 10:05:00,
2013-04-06 05:20:00,37.3,28.0,30.03,ESE,119,12.0,12.0,69,0.00,,,0.00,weatherlink.com 1.10,2013-04-06 10:20:00,
2013-04-06 05:35:00,38.0,28.0,30.02,SE,132,10.0,15.0,67,0.00,,,0.00,weatherlink.com 1.10,2013-04-06 10:35:00,
2013-04-06 05:50:00,38.7,28.0,30.03,SE,138,7.0,18.0,66,0.00,,,0.00,weatherlink.com 1.10,2013-04-06 10:50:00,
2013-04-06 06:05:00,38.8,28.0,30.03,SE,138,9.0,13.0,66,0.00,,,0.00,weatherlink.com 1.10,2013-04-06 11:05:00,
2013-04-06 06:20:00,39.2,29.0,30.02,SE,136,8.0,14.0,66,0.00,,,0.00,weatherlink.com 1.10,2013-04-06 11:20:00,
2013-04-06 06:35:00,39.3,29.0,30.02,SE,146,8.0,12.0,66,0.00,,,0.00,weatherlink.com 1.10,2013-04-06 11:35:00,
2013-04-06 06:50:00,39.9,29.0,30.02,SSE,155,8.0,11.0,66,0.00,,,0.00,weatherlink.com 1.10,2013-04-06 11:50:00,
2013-04-06 07:05:00,41.2,30.0,30.02,SSE,159,9.0,15.0,64,0.00,,,0.00,weatherlink.com 1.10,2013-04-06 12:05:00,
2013-04-06 07:20:00,42.7,30.0,30.02,SSE,153,13.0,16.0,61,0.00,,,0.00,weatherlink.com 1.10,2013-04-06 12:20:00,
2013-04-06 07:35:00,43.9,31.0,30.02,SSE,165,12.0,21.0,60,0.00,,,0.00,weatherlink.com 1.10,2013-04-06 12:35:00,
2013-04-06 07:50:00,45.0,31.0,30.02,SSE,155,18.0,25.0,58,0.00,,,0.00,weatherlink.com 1.10,2013-04-06 12:50:00,
2013-04-06 08:21:00,46.7,32.0,30.01,South,170,21.0,26.0,56,0.00,,,0.00,weatherlink.com 1.10,2013-04-06 13:21:00,
2013-04-06 08:51:00,49.0,33.0,30.00,SSE,157,21.0,27.0,54,0.00,,,0.00,weatherlink.com 1.10,2013-04-06 13:51:00,
2013-04-06 09:36:00,53.1,34.0,29.98,South,169,21.0,29.0,48,0.00,,,0.00,weatherlink.com 1.10,2013-04-06 14:36:00,
2013-04-06 10:21:00,57.1,35.0,29.95,SSE,165,26.0,28.0,44,0.00,,,0.00,weatherlink.com 1.10,2013-04-06 15:21:00,
2013-04-06 10:36:00,58.5,35.0,29.94,South,170,25.0,34.0,42,0.00,,,0.00,weatherlink.com 1.10,2013-04-06 15:36:00,
2013-04-06 10:51:00,59.7,36.0,29.93,SSE,165,18.0,37.0,41,0.00,,,0.00,weatherlink.com 1.10,2013-04-06 15:51:00,
2013-04-06 11:06:00,60.3,36.0,29.92,South,190,15.0,36.0,41,0.00,,,0.00,weatherlink.com 1.10,2013-04-06 16:06:00,
2013-04-06 11:21:00,60.7,37.0,29.90,SSE,159,22.0,34.0,41,0.00,,,0.00,weatherlink.com 1.10,2013-04-06 16:21:00,
2013-04-06 11:36:00,61.9,36.0,29.89,South,176,27.0,37.0,39,0.00,,,0.00,weatherlink.com 1.10,2013-04-06 16:36:00,
2013-04-06 11:51:00,62.6,37.0,29.89,SE,133,25.0,37.0,39,0.00,,,0.00,weatherlink.com 1.10,2013-04-06 16:51:00,
2013-04-06 12:07:00,63.1,38.0,29.89,South,175,14.0,37.0,39,0.00,,,0.00,weatherlink.com 1.10,2013-04-06 17:07:00,
2013-04-06 12:21:00,64.1,38.0,29.87,SSW,202,12.0,36.0,38,0.00,,,0.00,weatherlink.com 1.10,2013-04-06 17:21:00,
2013-04-06 12:37:00,64.4,37.0,29.86,South,190,15.0,40.0,37,0.00,,,0.00,weatherlink.com 1.10,2013-04-06 17:37:00,
2013-04-06 12:52:00,65.9,38.0,29.85,South,190,22.0,40.0,36,0.00,,,0.00,weatherlink.com 1.10,2013-04-06 17:52:00,
2013-04-06 13:07:00,65.8,39.0,29.83,South,173,26.0,39.0,37,0.00,,,0.00,weatherlink.com 1.10,2013-04-06 18:07:00,
2013-04-06 13:22:00,67.0,38.0,29.82,SSE,166,28.0,39.0,35,0.00,,,0.00,weatherlink.com 1.10,2013-04-06 18:22:00,
2013-04-06 13:37:00,66.9,38.0,29.81,SSW,205,27.0,40.0,35,0.00,,,0.00,weatherlink.com 1.10,2013-04-06 18:37:00,
2013-04-06 13:52:00,67.9,39.0,29.80,SSW,207,24.0,39.0,35,0.00,,,0.00,weatherlink.com 1.10,2013-04-06 18:52:00,
2013-04-06 14:07:00,69.2,39.0,29.78,South,183,26.0,44.0,33,0.00,,,0.00,weatherlink.com 1.10,2013-04-06 19:07:00,
2013-04-06 14:22:00,68.7,39.0,29.76,SSW,193,25.0,44.0,34,0.00,,,0.00,weatherlink.com 1.10,2013-04-06 19:22:00,
2013-04-06 14:37:00,70.2,36.0,29.76,SSW,205,25.0,43.0,29,0.00,,,0.00,weatherlink.com 1.10,2013-04-06 19:37:00,
2013-04-06 14:52:00,70.3,37.0,29.75,South,177,28.0,40.0,30,0.00,,,0.00,weatherlink.com 1.10,2013-04-06 19:52:00,
2013-04-06 15:07:00,70.2,39.0,29.74,South,175,29.0,39.0,32,0.00,,,0.00,weatherlink.com 1.10,2013-04-06 20:07:00,
2013-04-06 15:22:00,69.7,38.0,29.73,SSW,198,22.0,42.0,32,0.00,,,0.00,weatherlink.com 1.10,2013-04-06 20:22:00,
2013-04-06 15:37:00,70.2,39.0,29.73,SSW,211,19.0,37.0,32,0.00,,,0.00,weatherlink.com 1.10,2013-04-06 20:37:00,
2013-04-06 15:52:00,70.1,39.0,29.72,SSW,205,13.0,32.0,32,0.00,,,0.00,weatherlink.com 1.10,2013-04-06 20:52:00,
2013-04-06 16:07:00,70.2,35.0,29.71,SSW,207,28.0,39.0,27,0.00,,,0.00,weatherlink.com 1.10,2013-04-06 21:07:00,
2013-04-06 16:22:00,70.8,34.0,29.71,SSE,148,29.0,40.0,26,0.00,,,0.00,weatherlink.com 1.10,2013-04-06 21:22:00,
2013-04-06 16:37:00,69.9,34.0,29.71,SW,221,23.0,39.0,27,0.00,,,0.00,weatherlink.com 1.10,2013-04-06 21:37:00,
2013-04-06 16:52:00,68.9,35.0,29.71,SW,214,26.0,38.0,29,0.00,,,0.00,weatherlink.com 1.10,2013-04-06 21:52:00,
2013-04-06 17:07:00,68.1,36.0,29.71,SSW,195,34.0,40.0,31,0.00,,,0.00,weatherlink.com 1.10,2013-04-06 22:07:00,
2013-04-06 17:22:00,67.0,38.0,29.70,SW,215,18.0,41.0,34,0.00,,,0.00,weatherlink.com 1.10,2013-04-06 22:22:00,
2013-04-06 17:37:00,66.5,39.0,29.72,SSW,213,19.0,27.0,36,0.00,,,0.00,weatherlink.com 1.10,2013-04-06 22:37:00,
2013-04-06 17:52:00,66.6,38.0,29.71,SSW,200,17.0,36.0,35,0.00,,,0.00,weatherlink.com 1.10,2013-04-06 22:52:00,
2013-04-06 18:07:00,66.0,38.0,29.70,SSW,200,13.0,30.0,36,0.00,,,0.00,weatherlink.com 1.10,2013-04-06 23:07:00,
2013-04-06 18:22:00,65.8,38.0,29.69,South,190,11.0,30.0,36,0.00,,,0.00,weatherlink.com 1.10,2013-04-06 23:22:00,
2013-04-06 18:37:00,65.5,38.0,29.69,South,184,25.0,28.0,36,0.00,,,0.00,weatherlink.com 1.10,2013-04-06 23:37:00,
2013-04-06 18:52:00,65.3,38.0,29.70,SW,215,18.0,23.0,37,0.00,,,0.00,weatherlink.com 1.10,2013-04-06 23:52:00,
2013-04-06 19:07:00,64.6,39.0,29.70,SSW,199,13.0,20.0,39,0.00,,,0.00,weatherlink.com 1.10,2013-04-07 00:07:00,
2013-04-06 19:22:00,64.8,39.0,29.70,SSW,198,14.0,27.0,39,0.00,,,0.00,weatherlink.com 1.10,2013-04-07 00:22:00,
2013-04-06 19:37:00,64.7,39.0,29.70,SSW,192,20.0,26.0,39,0.00,,,0.00,weatherlink.com 1.10,2013-04-07 00:37:00,
2013-04-06 19:52:00,64.3,39.0,29.70,South,190,16.0,24.0,40,0.00,,,0.00,weatherlink.com 1.10,2013-04-07 00:52:00,
2013-04-06 20:07:00,63.9,40.0,29.70,SSW,202,14.0,29.0,41,0.00,,,0.00,weatherlink.com 1.10,2013-04-07 01:07:00,
2013-04-06 20:22:00,63.9,40.0,29.70,SSW,199,21.0,24.0,41,0.00,,,0.00,weatherlink.com 1.10,2013-04-07 01:22:00,
2013-04-06 20:37:00,63.7,40.0,29.70,SSW,194,19.0,26.0,42,0.00,,,0.00,weatherlink.com 1.10,2013-04-07 01:37:00,
2013-04-06 20:52:00,63.5,40.0,29.70,SSW,199,19.0,24.0,42,0.00,,,0.00,weatherlink.com 1.10,2013-04-07 01:52:00,
2013-04-06 21:07:00,62.8,40.0,29.70,South,173,22.0,25.0,43,0.00,,,0.00,weatherlink.com 1.10,2013-04-07 02:07:00,
2013-04-06 21:22:00,62.4,39.0,29.69,SSW,199,13.0,26.0,43,0.00,,,0.00,weatherlink.com 1.10,2013-04-07 02:22:00,
2013-04-06 21:37:00,62.2,40.0,29.69,SW,220,22.0,28.0,44,0.00,,,0.00,weatherlink.com 1.10,2013-04-07 02:37:00,
2013-04-06 21:52:00,61.9,41.0,29.68,South,175,19.0,26.0,46,0.00,,,0.00,weatherlink.com 1.10,2013-04-07 02:52:00,
2013-04-06 22:07:00,61.8,41.0,29.68,SSW,197,14.0,26.0,47,0.00,,,0.00,weatherlink.com 1.10,2013-04-07 03:07:00,
2013-04-06 22:22:00,62.3,41.0,29.68,SSW,208,15.0,29.0,46,0.00,,,0.00,weatherlink.com 1.10,2013-04-07 03:22:00,
2013-04-06 22:37:00,61.6,44.0,29.71,SSW,213,18.0,30.0,52,0.00,,,0.00,weatherlink.com 1.10,2013-04-07 03:37:00,
2013-04-06 22:52:00,58.5,47.0,29.74,SW,229,11.0,23.0,65,0.00,,,0.00,weatherlink.com 1.10,2013-04-07 03:52:00,
2013-04-06 23:08:00,55.4,48.0,29.72,SSW,207,9.0,21.0,77,0.03,,,0.01,weatherlink.com 1.10,2013-04-07 04:08:00,
2013-04-06 23:23:00,55.1,48.0,29.71,SSW,206,16.0,19.0,77,0.03,,,0.01,weatherlink.com 1.10,2013-04-07 04:23:00,
2013-04-06 23:38:00,56.0,48.0,29.70,SSW,202,10.0,17.0,74,0.03,,,0.01,weatherlink.com 1.10,2013-04-07 04:38:00,
2013-04-06 23:53:00,56.6,47.0,29.70,SSW,205,17.0,25.0,70,0.03,,,0.01,weatherlink.com 1.10,2013-04-07 04:53:00,